createdAt,value
2019-03-08T00:01:47.473Z,82.14
2019-03-08T00:04:16.725Z,82.04
2019-03-08T00:06:45.965Z,82.18
2019-03-08T00:09:16.666Z,82.13
2019-03-08T00:11:48.434Z,82.20
2019-03-08T00:14:21.752Z,82.43
2019-03-08T00:16:50.967Z,82.49
2019-03-08T00:19:23.844Z,82.63
2019-03-08T00:21:53.511Z,82.71
2019-03-08T00:24:22.870Z,82.79
2019-03-08T00:26:53.297Z,83.04
2019-03-08T00:29:22.585Z,83.18
2019-03-08T00:31:52.146Z,83.37
2019-03-08T00:34:22.301Z,83.46
2019-03-08T00:36:54.109Z,83.79
2019-03-08T00:39:23.415Z,83.71
2019-03-08T00:41:56.540Z,83.91
2019-03-08T00:44:25.769Z,83.85
2019-03-08T00:46:54.828Z,83.63
2019-03-08T00:49:27.678Z,83.30
2019-03-08T00:51:58.416Z,82.85
2019-03-08T00:54:28.074Z,82.76
2019-03-08T00:56:57.293Z,82.56
2019-03-08T00:59:26.555Z,82.41
2019-03-08T01:01:55.953Z,82.35
2019-03-08T01:04:27.569Z,82.11
2019-03-08T01:06:58.250Z,82.09
2019-03-08T01:09:36.469Z,82.18
2019-03-08T01:12:05.841Z,81.87
2019-03-08T01:14:35.941Z,81.60
2019-03-08T01:17:05.082Z,81.32
2019-03-08T01:19:37.777Z,80.93
2019-03-08T01:22:07.007Z,80.66
2019-03-08T01:24:37.644Z,80.98
2019-03-08T01:27:07.899Z,80.59
2019-03-08T01:29:37.242Z,80.51
2019-03-08T01:32:06.877Z,80.00
2019-03-08T01:34:36.817Z,79.77
2019-03-08T01:37:06.053Z,79.81
2019-03-08T01:39:35.326Z,79.43
2019-03-08T01:42:13.598Z,79.52
2019-03-08T01:44:43.445Z,80.31
2019-03-08T01:47:13.807Z,80.38
2019-03-08T01:49:43.074Z,80.49
2019-03-08T01:52:12.300Z,80.31
2019-03-08T01:54:41.883Z,80.32
2019-03-08T01:57:12.284Z,80.17
2019-03-08T01:59:42.852Z,80.05
2019-03-08T02:02:14.536Z,80.03
2019-03-08T02:04:47.457Z,80.04
2019-03-08T02:07:21.499Z,80.13
2019-03-08T02:09:51.816Z,80.21
2019-03-08T02:12:22.987Z,80.32
2019-03-08T02:14:53.593Z,80.75
2019-03-08T02:17:22.834Z,80.94
2019-03-08T02:19:57.139Z,81.10
2019-03-08T02:22:26.523Z,81.16
2019-03-08T02:24:56.872Z,81.18
2019-03-08T02:27:25.921Z,80.90
2019-03-08T02:29:55.432Z,80.39
2019-03-08T02:32:24.939Z,79.88
2019-03-08T02:34:54.638Z,79.90
2019-03-08T02:37:23.865Z,79.93
2019-03-08T02:39:54.721Z,79.64
2019-03-08T02:42:24.464Z,79.29
2019-03-08T02:44:58.224Z,78.91
2019-03-08T02:47:29.599Z,78.90
2019-03-08T02:50:01.212Z,78.72
2019-03-08T02:52:31.519Z,78.76
2019-03-08T02:55:02.215Z,78.69
2019-03-08T02:57:32.701Z,78.62
2019-03-08T03:00:02.312Z,78.48
2019-03-08T03:02:31.870Z,78.43
2019-03-08T03:05:02.793Z,77.96
2019-03-08T03:07:32.497Z,77.84
2019-03-08T03:10:03.299Z,77.90
2019-03-08T03:12:32.519Z,78.06
2019-03-08T03:15:01.800Z,78.22
2019-03-08T03:17:31.033Z,78.34
2019-03-08T03:20:00.574Z,78.69
2019-03-08T03:22:30.863Z,78.81
2019-03-08T03:25:02.242Z,78.99
2019-03-08T03:27:40.010Z,79.21
2019-03-08T03:30:14.136Z,79.33
2019-03-08T03:32:45.513Z,79.42
2019-03-08T03:35:17.713Z,79.37
2019-03-08T03:37:47.712Z,79.44
2019-03-08T03:40:17.000Z,79.29
2019-03-08T03:42:49.667Z,79.38
2019-03-08T03:45:19.887Z,79.45
2019-03-08T03:47:51.256Z,79.42
2019-03-08T03:50:21.055Z,79.18
2019-03-08T03:52:51.477Z,79.26
2019-03-08T03:55:20.724Z,78.92
2019-03-08T03:57:52.881Z,78.62
2019-03-08T04:00:22.426Z,78.86
2019-03-08T04:02:52.988Z,78.76
2019-03-08T04:05:24.699Z,78.57
2019-03-08T04:07:54.852Z,78.44
2019-03-08T04:10:24.824Z,78.34
2019-03-08T04:12:57.000Z,78.28
2019-03-08T04:15:27.561Z,78.33
2019-03-08T04:17:57.985Z,78.22
2019-03-08T04:20:36.094Z,78.06
2019-03-08T04:23:05.305Z,77.93
2019-03-08T04:25:35.618Z,77.83
2019-03-08T04:28:05.666Z,77.70
2019-03-08T04:30:35.754Z,77.54
2019-03-08T04:33:10.477Z,77.55
2019-03-08T04:35:39.965Z,77.75
2019-03-08T04:38:09.215Z,77.91
2019-03-08T04:40:42.878Z,78.08
2019-03-08T04:43:14.607Z,78.39
2019-03-08T04:45:44.199Z,78.47
2019-03-08T04:48:13.448Z,78.46
2019-03-08T04:50:42.971Z,77.90
2019-03-08T04:53:14.677Z,77.57
2019-03-08T04:55:43.929Z,77.92
2019-03-08T04:58:13.186Z,77.88
2019-03-08T05:00:42.877Z,77.98
2019-03-08T05:03:12.382Z,77.97
2019-03-08T05:05:41.908Z,77.61
2019-03-08T05:08:13.756Z,77.46
2019-03-08T05:10:45.408Z,77.64
2019-03-08T05:13:14.669Z,77.60
2019-03-08T05:15:46.612Z,77.05
2019-03-08T05:18:15.892Z,75.86
2019-03-08T05:20:46.070Z,74.73
2019-03-08T05:23:17.462Z,74.08
2019-03-08T05:25:46.983Z,73.85
2019-03-08T05:28:16.219Z,74.15
2019-03-08T05:30:45.845Z,73.67
2019-03-08T05:33:17.164Z,73.53
2019-03-08T05:35:46.389Z,73.22
2019-03-08T05:38:16.442Z,73.00
2019-03-08T05:40:46.255Z,72.78
2019-03-08T05:43:20.946Z,73.16
2019-03-08T05:45:50.442Z,73.33
2019-03-08T05:48:19.694Z,72.90
2019-03-08T05:50:51.491Z,72.94
2019-03-08T05:53:22.269Z,73.10
2019-03-08T05:55:51.885Z,73.46
2019-03-08T05:58:22.255Z,73.43
2019-03-08T06:00:51.819Z,73.56
2019-03-08T06:03:21.631Z,73.39
2019-03-08T06:05:52.017Z,73.32
2019-03-08T06:08:21.614Z,72.96
2019-03-08T06:10:51.117Z,72.41
2019-03-08T06:13:20.565Z,71.82
2019-03-08T06:15:50.990Z,71.69
2019-03-08T06:18:21.230Z,71.27
2019-03-08T06:20:50.714Z,70.89
2019-03-08T06:23:20.850Z,70.31
2019-03-08T06:25:50.086Z,70.03
2019-03-08T06:28:23.005Z,69.71
2019-03-08T06:30:52.234Z,69.58
2019-03-08T06:33:23.390Z,69.49
2019-03-08T06:35:55.940Z,69.01
2019-03-08T06:38:25.925Z,68.18
2019-03-08T06:40:58.254Z,68.38
2019-03-08T06:43:31.457Z,68.37
2019-03-08T06:46:03.006Z,68.13
2019-03-08T06:48:34.820Z,68.35
2019-03-08T06:51:05.292Z,68.12
2019-03-08T06:53:34.527Z,67.58
2019-03-08T06:56:04.094Z,67.68
2019-03-08T06:58:58.174Z,67.36
2019-03-08T07:01:33.508Z,65.72
2019-03-08T07:04:04.721Z,62.15
2019-03-08T07:06:34.251Z,58.75
2019-03-08T07:09:05.552Z,55.41
2019-03-08T07:11:36.564Z,55.52
2019-03-08T07:14:05.913Z,57.73
2019-03-08T07:16:37.123Z,60.11
2019-03-08T07:19:07.262Z,61.07
2019-03-08T07:21:52.393Z,61.16
2019-03-08T07:24:48.561Z,62.41
2019-03-08T07:27:39.549Z,62.81
2019-03-08T07:30:28.339Z,63.43
2019-03-08T07:33:28.387Z,63.85
2019-03-08T07:36:19.423Z,64.85
2019-03-08T07:39:13.427Z,65.46
2019-03-08T07:41:52.948Z,66.59
2019-03-08T07:44:53.192Z,66.89
2019-03-08T07:47:56.510Z,67.36
2019-03-08T07:50:44.154Z,67.33
2019-03-08T07:53:44.429Z,67.16
2019-03-08T07:56:39.494Z,68.25
2019-03-08T07:59:26.328Z,68.08
2019-03-08T08:02:10.107Z,68.29
2019-03-08T08:04:49.067Z,66.91
2019-03-08T08:07:42.407Z,65.92
2019-03-08T08:10:37.727Z,65.60
2019-03-08T08:13:20.978Z,64.32
2019-03-08T08:16:20.313Z,63.81
2019-03-08T08:19:16.052Z,63.08
2019-03-08T08:22:04.295Z,60.35
2019-03-08T08:24:52.489Z,58.04
2019-03-08T08:27:40.664Z,59.02
2019-03-08T08:30:22.308Z,60.16
2019-03-08T08:33:13.864Z,61.02
2019-03-08T08:35:51.981Z,61.51
2019-03-08T08:38:35.453Z,62.32
2019-03-08T08:41:21.187Z,63.95
2019-03-08T08:44:16.315Z,63.45
2019-03-08T08:47:07.995Z,63.88
2019-03-08T08:49:54.618Z,63.66
2019-03-08T08:52:43.970Z,61.98
2019-03-08T08:55:28.195Z,63.44
2019-03-08T08:58:34.393Z,64.42
2019-03-08T09:01:28.299Z,62.83
2019-03-08T09:04:16.954Z,60.75
2019-03-08T09:07:07.422Z,60.00
2019-03-08T09:10:01.398Z,62.11
2019-03-08T09:12:59.380Z,59.85
2019-03-08T09:15:46.208Z,58.04
2019-03-08T09:18:34.491Z,55.33
2019-03-08T09:21:12.647Z,57.59
2019-03-08T09:23:53.883Z,56.63
2019-03-08T09:26:56.929Z,57.58
2019-03-08T09:29:41.629Z,57.29
2019-03-08T09:32:30.391Z,59.23
2019-03-08T09:35:09.344Z,58.75
2019-03-08T09:38:17.485Z,59.07
2019-03-08T09:41:08.710Z,58.28
2019-03-08T09:44:14.074Z,57.60
2019-03-08T09:47:16.155Z,57.13
2019-03-08T09:50:02.982Z,57.18
2019-03-08T09:52:48.612Z,56.62
2019-03-08T09:55:35.556Z,54.02
2019-03-08T09:58:32.308Z,53.22
2019-03-08T10:01:17.300Z,51.13
2019-03-08T10:04:13.433Z,49.56
2019-03-08T10:07:13.894Z,49.87
2019-03-08T10:10:08.282Z,50.49
2019-03-08T10:12:43.850Z,54.48
2019-03-08T10:15:31.099Z,57.96
2019-03-08T10:18:22.057Z,59.15
2019-03-08T10:21:06.998Z,61.20
2019-03-08T10:23:46.879Z,60.85
2019-03-08T10:26:51.218Z,61.09
2019-03-08T10:29:36.744Z,61.13
2019-03-08T10:32:24.906Z,61.46
2019-03-08T10:35:20.498Z,61.43
2019-03-08T10:37:51.747Z,61.54
2019-03-08T10:40:44.704Z,60.42
2019-03-08T10:43:32.566Z,53.74
2019-03-08T10:46:19.452Z,48.87
2019-03-08T10:49:09.234Z,50.74
2019-03-08T10:51:50.953Z,53.86
2019-03-08T10:54:40.959Z,55.22
2019-03-08T10:57:17.855Z,54.92
2019-03-08T11:00:13.838Z,54.76
2019-03-08T11:02:54.289Z,54.81
2019-03-08T11:05:54.507Z,54.85
2019-03-08T11:09:02.662Z,54.91
2019-03-08T11:12:06.163Z,53.01
2019-03-08T11:14:54.139Z,53.99
2019-03-08T11:17:50.687Z,53.75
2019-03-08T11:20:27.257Z,53.92
2019-03-08T11:23:21.149Z,54.29
2019-03-08T11:26:09.842Z,49.29
2019-03-08T11:29:14.865Z,46.10
2019-03-08T11:32:03.792Z,45.11
2019-03-08T11:35:22.071Z,43.50
2019-03-08T11:38:07.129Z,44.40
2019-03-08T11:40:55.419Z,41.65
2019-03-08T11:43:48.249Z,42.68
2019-03-08T11:46:56.113Z,41.16
2019-03-08T11:49:37.895Z,41.04
2019-03-08T11:52:32.778Z,41.77
2019-03-08T11:55:24.352Z,40.87
2019-03-08T11:58:16.859Z,39.97
2019-03-08T12:01:12.382Z,38.14
2019-03-08T12:04:00.941Z,39.82
2019-03-08T12:06:43.131Z,39.84
2019-03-08T12:09:41.139Z,40.46
2019-03-08T12:12:32.400Z,40.07
2019-03-08T12:15:21.567Z,39.27
2019-03-08T12:18:19.780Z,39.44
2019-03-08T12:21:08.327Z,41.09
2019-03-08T12:23:55.281Z,40.55
2019-03-08T12:26:46.211Z,39.38
2019-03-08T12:29:34.070Z,39.52
2019-03-08T12:32:23.612Z,39.96
2019-03-08T12:35:12.191Z,41.65
2019-03-08T12:37:57.759Z,38.96
2019-03-08T12:40:35.701Z,39.70
2019-03-08T12:43:25.082Z,38.65
2019-03-08T12:46:14.170Z,40.19
2019-03-08T12:49:18.726Z,41.58
2019-03-08T12:51:56.635Z,42.51
2019-03-08T12:54:56.343Z,39.05
2019-03-08T12:57:51.679Z,39.69
2019-03-08T13:00:38.636Z,41.43
2019-03-08T13:03:25.338Z,42.88
2019-03-08T13:06:17.758Z,40.93
2019-03-08T13:09:08.731Z,38.45
2019-03-08T13:11:38.253Z,38.01
2019-03-08T13:14:07.798Z,35.86
2019-03-08T13:16:37.912Z,34.86
2019-03-08T13:19:10.298Z,35.91
2019-03-08T13:21:41.654Z,37.21
2019-03-08T13:24:12.645Z,36.89
2019-03-08T13:26:44.987Z,35.48
2019-03-08T13:29:14.235Z,36.89
2019-03-08T13:31:43.491Z,36.42
2019-03-08T13:34:17.493Z,37.60
2019-03-08T13:36:48.035Z,36.52
2019-03-08T13:39:18.954Z,36.46
2019-03-08T13:41:48.218Z,35.17
2019-03-08T13:44:21.328Z,35.15
2019-03-08T13:46:50.596Z,37.03
2019-03-08T13:49:21.408Z,36.82
2019-03-08T13:51:52.429Z,37.49
2019-03-08T13:54:21.666Z,40.35
2019-03-08T13:56:52.505Z,40.88
2019-03-08T13:59:23.677Z,42.26
2019-03-08T14:02:00.435Z,41.96
2019-03-08T14:04:30.098Z,40.74
2019-03-08T14:06:59.739Z,40.04
2019-03-08T14:09:31.850Z,40.11
2019-03-08T14:12:01.917Z,39.36
2019-03-08T14:14:31.349Z,38.17
2019-03-08T14:17:00.905Z,37.94
2019-03-08T14:19:33.777Z,35.71
2019-03-08T14:22:03.278Z,36.75
2019-03-08T14:24:32.777Z,38.04
2019-03-08T14:27:04.314Z,37.96
2019-03-08T14:29:36.445Z,37.26
2019-03-08T14:32:27.442Z,36.89
2019-03-08T14:34:58.122Z,36.36
2019-03-08T14:37:27.370Z,37.39
2019-03-08T14:39:56.861Z,37.03
2019-03-08T14:42:40.323Z,37.07
2019-03-08T14:45:17.871Z,37.54
2019-03-08T14:47:51.674Z,37.79
2019-03-08T14:50:23.655Z,39.62
2019-03-08T14:52:56.682Z,40.48
2019-03-08T14:55:27.772Z,41.33
2019-03-08T14:57:58.979Z,41.22
2019-03-08T15:00:30.545Z,37.76
2019-03-08T15:03:02.634Z,38.35
2019-03-08T15:05:32.188Z,38.91
2019-03-08T15:08:01.727Z,40.31
2019-03-08T15:10:39.411Z,41.84
2019-03-08T15:13:06.841Z,42.52
2019-03-08T15:15:44.123Z,43.69
2019-03-08T15:18:14.802Z,43.00
2019-03-08T15:20:44.866Z,43.14
2019-03-08T15:23:20.405Z,43.99
2019-03-08T15:25:51.873Z,45.50
2019-03-08T15:28:21.158Z,46.97
2019-03-08T15:30:51.363Z,46.64
2019-03-08T15:33:20.913Z,47.41
2019-03-08T15:35:51.826Z,46.16
2019-03-08T15:38:22.697Z,46.22
2019-03-08T15:40:51.973Z,47.06
2019-03-08T15:43:22.368Z,47.52
2019-03-08T15:45:54.397Z,46.30
2019-03-08T15:48:24.012Z,44.37
2019-03-08T15:50:56.565Z,43.92
2019-03-08T15:53:26.120Z,44.01
2019-03-08T15:55:59.931Z,44.22
2019-03-08T15:58:30.866Z,45.20
2019-03-08T16:01:02.044Z,46.08
2019-03-08T16:03:33.855Z,46.75
2019-03-08T16:06:06.434Z,47.33
2019-03-08T16:08:39.761Z,48.16
2019-03-08T16:11:09.715Z,48.58
2019-03-08T16:13:52.169Z,48.79
2019-03-08T16:16:21.820Z,49.19
2019-03-08T16:18:52.179Z,49.19
2019-03-08T16:21:21.446Z,49.88
2019-03-08T16:23:51.829Z,51.08
2019-03-08T16:26:25.366Z,50.50
2019-03-08T16:28:57.719Z,51.43
2019-03-08T16:31:48.964Z,51.13
2019-03-08T16:34:24.447Z,51.68
2019-03-08T16:36:58.815Z,52.13
2019-03-08T16:39:34.950Z,52.10
2019-03-08T16:42:21.218Z,52.68
2019-03-08T16:45:08.119Z,52.37
2019-03-08T16:47:54.800Z,51.65
2019-03-08T16:50:56.236Z,51.59
2019-03-08T16:53:47.892Z,52.06
2019-03-08T16:56:44.482Z,52.88
2019-03-08T16:59:43.275Z,53.19
2019-03-08T17:02:32.367Z,53.47
2019-03-08T17:05:21.571Z,53.81
2019-03-08T17:07:59.763Z,54.09
2019-03-08T17:10:48.302Z,53.76
2019-03-08T17:13:53.542Z,53.92
2019-03-08T17:16:42.976Z,53.76
2019-03-08T17:19:30.688Z,54.44
2019-03-08T17:22:19.153Z,54.89
2019-03-08T17:25:10.570Z,55.50
2019-03-08T17:28:02.407Z,55.95
2019-03-08T17:30:46.937Z,56.38
2019-03-08T17:33:31.164Z,56.98
2019-03-08T17:36:32.540Z,57.02
2019-03-08T17:39:20.735Z,57.31
2019-03-08T17:42:12.221Z,57.26
2019-03-08T17:44:56.880Z,57.69
2019-03-08T17:47:50.978Z,57.90
2019-03-08T17:50:46.022Z,58.35
2019-03-08T17:53:35.033Z,58.87
2019-03-08T17:56:26.240Z,59.16
2019-03-08T17:59:17.157Z,59.50
2019-03-08T18:02:14.327Z,59.29
2019-03-08T18:05:04.722Z,59.83
2019-03-08T18:08:08.092Z,60.49
2019-03-08T18:11:09.510Z,60.43
2019-03-08T18:13:55.774Z,60.51
2019-03-08T18:16:48.803Z,60.85
2019-03-08T18:19:29.239Z,60.74
2019-03-08T18:22:05.001Z,61.06
2019-03-08T18:24:54.214Z,61.51
2019-03-08T18:27:46.706Z,62.27
2019-03-08T18:30:52.483Z,62.33
2019-03-08T18:33:34.262Z,62.84
2019-03-08T18:36:22.748Z,63.46
2019-03-08T18:39:10.722Z,63.70
2019-03-08T18:42:01.297Z,63.74
2019-03-08T18:44:43.516Z,64.17
2019-03-08T18:47:33.602Z,63.66
2019-03-08T18:50:40.498Z,63.82
2019-03-08T18:53:33.076Z,64.03
2019-03-08T18:56:30.053Z,64.03
2019-03-08T18:59:07.389Z,64.65
2019-03-08T19:01:56.002Z,64.47
2019-03-08T19:04:47.090Z,64.99
2019-03-08T19:07:37.606Z,65.13
2019-03-08T19:10:29.572Z,65.59
2019-03-08T19:13:11.042Z,65.62
2019-03-08T19:15:53.423Z,65.62
2019-03-08T19:18:34.726Z,65.64
2019-03-08T19:21:39.430Z,65.63
2019-03-08T19:24:17.561Z,65.76
2019-03-08T19:27:25.096Z,66.02
2019-03-08T19:30:19.458Z,65.71
2019-03-08T19:33:13.595Z,66.17
2019-03-08T19:36:02.675Z,66.48
2019-03-08T19:38:57.831Z,66.81
2019-03-08T19:41:49.009Z,67.29
2019-03-08T19:44:35.862Z,67.58
2019-03-08T19:47:23.522Z,67.47
2019-03-08T19:50:14.460Z,67.66
2019-03-08T19:53:09.952Z,67.65
2019-03-08T19:55:57.717Z,67.26
2019-03-08T19:58:39.422Z,68.11
2019-03-08T20:01:26.668Z,68.21
2019-03-08T20:04:06.954Z,68.55
2019-03-08T20:06:59.839Z,69.02
2019-03-08T20:09:45.351Z,69.87
2019-03-08T20:12:21.760Z,69.70
2019-03-08T20:15:14.546Z,69.81
2019-03-08T20:18:07.127Z,70.15
2019-03-08T20:20:59.251Z,69.87
2019-03-08T20:23:44.037Z,69.51
2019-03-08T20:26:26.027Z,69.38
2019-03-08T20:29:14.251Z,69.27
2019-03-08T20:31:59.527Z,69.24
2019-03-08T20:34:57.002Z,68.95
2019-03-08T20:37:36.271Z,69.34
2019-03-08T20:40:28.267Z,69.62
2019-03-08T20:43:11.172Z,69.57
2019-03-08T20:45:48.030Z,69.54
2019-03-08T20:48:17.810Z,69.76
2019-03-08T20:50:47.086Z,69.81
2019-03-08T20:53:17.786Z,69.58
2019-03-08T20:55:49.926Z,69.58
2019-03-08T20:58:19.466Z,69.44
2019-03-08T21:00:54.104Z,69.38
2019-03-08T21:03:25.177Z,69.00
2019-03-08T21:05:56.685Z,68.88
2019-03-08T21:08:29.786Z,69.04
2019-03-08T21:10:59.993Z,69.07
2019-03-08T21:13:29.598Z,68.99
2019-03-08T21:16:00.434Z,69.15
2019-03-08T21:18:29.946Z,69.29
2019-03-08T21:21:02.178Z,69.50
2019-03-08T21:23:33.481Z,69.34
2019-03-08T21:26:11.458Z,69.53
2019-03-08T21:28:41.704Z,69.88
2019-03-08T21:31:13.092Z,70.18
2019-03-08T21:33:52.543Z,70.17
2019-03-08T21:36:21.820Z,70.21
2019-03-08T21:38:51.387Z,70.37
2019-03-08T21:41:21.446Z,70.24
2019-03-08T21:43:51.035Z,70.40
2019-03-08T21:46:20.295Z,70.77
2019-03-08T21:48:49.917Z,70.94
2019-03-08T21:51:19.656Z,71.51
2019-03-08T21:53:50.868Z,71.43
2019-03-08T21:56:20.132Z,72.66
2019-03-08T21:58:51.424Z,73.81
2019-03-08T22:01:20.713Z,73.88
2019-03-08T22:03:57.335Z,73.68
2019-03-08T22:06:27.291Z,73.71
2019-03-08T22:09:05.373Z,73.55
2019-03-08T22:11:39.812Z,73.75
2019-03-08T22:14:14.566Z,73.78
2019-03-08T22:16:43.843Z,73.86
2019-03-08T22:19:13.206Z,73.65
2019-03-08T22:21:44.825Z,73.68
2019-03-08T22:24:17.898Z,73.83
2019-03-08T22:26:48.154Z,73.72
2019-03-08T22:29:17.387Z,73.66
2019-03-08T22:31:47.711Z,73.31
2019-03-08T22:34:18.437Z,72.89
2019-03-08T22:36:48.474Z,72.78
2019-03-08T22:39:17.906Z,72.50
2019-03-08T22:41:47.481Z,72.65
2019-03-08T22:44:17.120Z,72.34
2019-03-08T22:50:27.492Z,71.80
2019-03-08T22:52:58.695Z,72.02
2019-03-08T22:56:33.989Z,72.14
2019-03-08T22:59:03.224Z,72.36
2019-03-08T23:01:57.365Z,72.71
2019-03-08T23:04:26.910Z,72.84
2019-03-08T23:06:56.176Z,72.75
2019-03-08T23:09:31.107Z,72.65
2019-03-08T23:12:01.472Z,72.54
2019-03-08T23:14:32.995Z,72.42
2019-03-08T23:17:03.080Z,72.21
2019-03-08T23:19:32.537Z,72.59
2019-03-08T23:22:03.211Z,72.60
2019-03-08T23:24:33.787Z,72.64
2019-03-08T23:27:21.983Z,72.60
2019-03-08T23:29:54.723Z,72.64
2019-03-08T23:32:27.442Z,72.59
2019-03-08T23:34:57.029Z,72.66
2019-03-08T23:37:30.569Z,72.69
2019-03-08T23:40:02.562Z,72.63
2019-03-08T23:42:32.258Z,72.58
2019-03-08T23:45:01.502Z,72.75
2019-03-08T23:47:35.166Z,72.99
2019-03-08T23:50:06.939Z,73.43
2019-03-08T23:52:38.806Z,73.55
2019-03-08T23:55:08.959Z,73.97
2019-03-08T23:57:39.751Z,74.07
